メインページ
METAR-TAF:

METAR-TAF

空港 :

Castlegar, ブリティッシュコロンビア州, カナダ

緯度: 49-18N, 経度: 117-38W, 海抜: 495m

現時点の気象観測

当レポートは23分前の18:00(UTC)に作成
南/南西の風 4kt
気温 4°C
湿度 100%
気圧 1019 hPa
視程: 4.8km
高度200ftの雲はほとんどない
高度800ftの雲は散在している
高度2800ftの千切れ雲あり
高度3700ftの曇り
小雨, 靄

METAR: CYCG 171800Z 20004KT 3SM -RA BR FEW002 SCT008 BKN028 OVC037 04/04 A3009 RMK SF2SC2SC3SC1 SLP206

時間: 10:23 (18:23 UTC)

予報

当レポートは2時間45分前の15:38(UTC)に作成
予報は17日の 16時(UTC)から 18日の 01時(UTC)まで有効
南/南東の風 5kt
視程: 3.2km
高度400ftの雲は散在している
高度2000ftの千切れ雲あり
高度3000ftの曇り
小雨, 靄
17日の 16時(UTC)から 18日の 01時(UTC)まで一時的に
視程: 10km
高度2000ftの雲は散在している
高度3000ftの曇り

TAF: CYCG 171538Z 1716/1801 16005KT 2SM -RA BR SCT004 BKN020 OVC030 TEMPO 1716/1801 P6SM NSW SCT020 OVC030 RMK NXT FCST BY 171900Z

4,000以上の空港の気象観測と天気予報(METAR報とTAF報)

利用可能な観測所は地図上に黄色い丸と赤い丸で示す。

丸の上にカーソルを重ねると観測所名を参照できる。

次にクリックすると気象観測と天気予報を参照できる。

マップの切り替え:黒色「×」印の緑ボタンをクリックして拡大、「-」印の緑ボタンをクリックして縮小、緑色の三角印をクリックして隣りの地図に切り替え


METAR-TAF: